»·PEaware :: FDX561 KLAX-KOAK

FDX561 :: KLAX-KOAK

FLIGHT INFORMATION

Flight Status: Arrived
Operator:
Federal Express
More flights by this operator :: More flights under this callsign
Pilot: Georg L. (13308)
Aircraft: AIRBUS A300B4-600
(A306)
More flights by this aircraft type
Origin: KLAX Los Angeles Intl
United States
Destination: KOAK Metro Oakland Intl
United States
More flights between these airports :: More routes between these airports
Route: +LADYJ4 COREZ RGOOD EMZOH3
File this flight plan on PilotEdge
Remarks:
Altitude:
(Current/Filed)
36,000ft
Speed:
(Current/Filed)
460kts
Departed: 14-Sep-20 09:08 AM
Arrived: 14-Sep-20 09:59 AM
Distance/Time
Traveled:
293nm/0:51
Distance/Time
To Go:
Arrived

Flight Plot

Page will automatically refresh every two minutes.

Flight plan parsing failed; only flown route is shown


Map Options




Map Legend


Flown Route
Filed Route
Departure Airport
Arrival Airport
Navaid (VOR, NDB)
Fix

Horizontal Profiles

Position Reports

Time Latitude Longitude Heading Altitude Ground
Speed
14-Sep-20 08:07 33.933950 -118.388360 173 113ft 0kts
14-Sep-20 08:08 33.933950 -118.388360 173 113ft 0kts
14-Sep-20 08:09 33.933950 -118.388360 173 113ft 0kts
14-Sep-20 08:10 33.933950 -118.388360 173 113ft 0kts
14-Sep-20 08:11 33.933950 -118.388360 173 113ft 0kts
14-Sep-20 08:12 33.933950 -118.388360 173 113ft 0kts
14-Sep-20 08:13 33.933950 -118.388360 173 113ft 0kts
14-Sep-20 08:14 33.933950 -118.388360 173 113ft 0kts
14-Sep-20 08:15 33.933950 -118.388360 173 113ft 0kts
14-Sep-20 08:16 33.933950 -118.388360 173 113ft 0kts
14-Sep-20 08:17 33.933950 -118.388360 173 113ft 0kts
14-Sep-20 08:18 33.933950 -118.388360 173 113ft 0kts
14-Sep-20 08:19 33.933950 -118.388360 173 113ft 0kts
14-Sep-20 08:20 33.933950 -118.388360 173 113ft 0kts
14-Sep-20 08:21 33.933950 -118.388360 173 112ft 0kts
14-Sep-20 08:22 33.933950 -118.388360 173 112ft 0kts
14-Sep-20 08:23 33.933950 -118.388360 173 113ft 0kts
14-Sep-20 08:24 33.933950 -118.388360 173 113ft 0kts
14-Sep-20 08:25 33.933950 -118.388360 173 113ft 0kts
14-Sep-20 08:26 33.933950 -118.388360 173 113ft 0kts
14-Sep-20 08:27 33.933950 -118.388360 173 113ft 0kts
14-Sep-20 08:28 33.933950 -118.388360 173 113ft 0kts
14-Sep-20 08:29 33.933950 -118.388360 173 113ft 0kts
14-Sep-20 08:30 33.933950 -118.388360 173 113ft 0kts
14-Sep-20 08:31 33.933950 -118.388360 173 113ft 0kts
14-Sep-20 08:32 33.933950 -118.388360 173 113ft 0kts
14-Sep-20 08:33 33.933950 -118.388360 173 113ft 0kts
14-Sep-20 08:34 33.933950 -118.388360 173 113ft 0kts
14-Sep-20 08:35 33.933950 -118.388360 173 113ft 0kts
14-Sep-20 08:36 33.933950 -118.388360 173 113ft 0kts
14-Sep-20 08:37 33.933950 -118.388360 173 113ft 0kts
14-Sep-20 08:38 33.933950 -118.388360 173 113ft 0kts
14-Sep-20 08:39 33.933950 -118.388360 173 113ft 0kts
14-Sep-20 08:40 33.933950 -118.388360 173 113ft 0kts
14-Sep-20 08:41 33.933950 -118.388360 173 113ft 0kts
14-Sep-20 08:42 33.933950 -118.388360 173 113ft 0kts
14-Sep-20 08:43 33.933950 -118.388360 173 113ft 0kts
14-Sep-20 08:44 33.933950 -118.388360 173 113ft 0kts
14-Sep-20 08:45 33.933950 -118.388360 173 113ft 0kts
14-Sep-20 08:46 33.933950 -118.388360 173 113ft 0kts
14-Sep-20 08:47 33.933950 -118.388360 173 113ft 0kts
14-Sep-20 08:48 33.933950 -118.388360 173 113ft 0kts
14-Sep-20 08:49 33.933950 -118.388360 173 113ft 0kts
14-Sep-20 08:50 33.933950 -118.388360 173 113ft 0kts
14-Sep-20 08:51 33.933950 -118.388360 173 113ft 0kts
14-Sep-20 08:52 33.933950 -118.388360 173 113ft 0kts
14-Sep-20 08:53 33.933950 -118.388360 173 113ft 0kts
14-Sep-20 08:54 33.933950 -118.388360 173 113ft 0kts
14-Sep-20 08:55 33.933950 -118.388360 173 113ft 0kts
14-Sep-20 08:56 33.933950 -118.388360 173 113ft 0kts
14-Sep-20 08:57 33.934421 -118.388431 172 113ft 2kts
14-Sep-20 08:58 33.934621 -118.388850 82 113ft 0kts
14-Sep-20 08:59 33.934621 -118.388849 82 113ft 0kts
14-Sep-20 09:00 33.934621 -118.388849 82 113ft 0kts
14-Sep-20 09:01 33.934621 -118.388849 82 113ft 0kts
14-Sep-20 09:02 33.934621 -118.388849 82 113ft 0kts
14-Sep-20 09:03 33.935398 -118.387892 9 112ft 7kts
14-Sep-20 09:04 33.935986 -118.384101 84 110ft 15kts
14-Sep-20 09:05 33.936325 -118.382823 19 109ft 0kts
14-Sep-20 09:06 33.937104 -118.382956 326 109ft 11kts
14-Sep-20 09:07 33.936131 -118.394728 263 117ft 132kts
14-Sep-20 09:08 33.929201 -118.463102 266 2697ft 227kts
14-Sep-20 09:09 33.924029 -118.549436 263 6084ft 279kts
14-Sep-20 09:10 33.940477 -118.639759 314 10529ft 306kts
14-Sep-20 09:11 34.027183 -118.672780 1 12702ft 363kts
14-Sep-20 09:12 34.135008 -118.656561 10 14220ft 406kts
14-Sep-20 09:13 34.248342 -118.637917 352 18329ft 426kts
14-Sep-20 09:14 34.367064 -118.660762 355 22000ft 443kts
14-Sep-20 09:15 34.474225 -118.704711 327 23901ft 453kts
14-Sep-20 09:16 34.583043 -118.782544 327 25877ft 459kts
14-Sep-20 09:17 34.695022 -118.862358 327 26697ft 467kts
14-Sep-20 09:18 34.807203 -118.942270 327 27510ft 469kts
14-Sep-20 09:19 34.919940 -119.023031 326 29076ft 468kts
14-Sep-20 09:20 35.031289 -119.102888 325 32234ft 459kts
14-Sep-20 09:21 35.138729 -119.180064 325 35651ft 443kts
14-Sep-20 09:22 35.243776 -119.255691 324 36051ft 436kts
14-Sep-20 09:23 35.348599 -119.331328 324 36051ft 437kts
14-Sep-20 09:24 35.453212 -119.406974 325 36051ft 438kts
14-Sep-20 09:25 35.558429 -119.483252 324 36051ft 438kts
14-Sep-20 09:26 35.651658 -119.577240 315 36050ft 433kts
14-Sep-20 09:27 35.744229 -119.672868 315 36057ft 433kts
14-Sep-20 09:28 35.837283 -119.768698 315 36057ft 435kts
14-Sep-20 09:29 35.929866 -119.865741 312 36057ft 432kts
14-Sep-20 09:30 36.016526 -119.969458 312 36056ft 432kts
14-Sep-20 09:31 36.103303 -120.072935 312 36053ft 435kts
14-Sep-20 09:32 36.190988 -120.177475 312 36050ft 437kts
14-Sep-20 09:33 36.278967 -120.282501 312 35866ft 438kts
14-Sep-20 09:34 36.366969 -120.387784 313 33153ft 443kts
14-Sep-20 09:35 36.456955 -120.495782 314 30456ft 454kts
14-Sep-20 09:36 36.545922 -120.602178 316 28286ft 427kts
14-Sep-20 09:37 36.632817 -120.699210 316 26185ft 414kts
14-Sep-20 09:38 36.717748 -120.793764 317 24129ft 405kts
14-Sep-20 09:40 36.799838 -120.885140 317 22630ft 386kts
14-Sep-20 09:41 36.879885 -120.974157 317 20742ft 382kts
14-Sep-20 09:42 36.958373 -121.061472 317 18941ft 374kts
14-Sep-20 09:43 37.035410 -121.147276 317 17123ft 367kts
14-Sep-20 09:44 37.111059 -121.231686 316 15331ft 361kts
14-Sep-20 09:45 37.184366 -121.315879 315 13834ft 360kts
14-Sep-20 09:46 37.256834 -121.400430 314 12130ft 352kts
14-Sep-20 09:47 37.324554 -121.479376 314 11417ft 305kts
14-Sep-20 09:48 37.385758 -121.550802 315 9452ft 296kts
14-Sep-20 09:49 37.446083 -121.620295 311 8042ft 289kts
14-Sep-20 09:50 37.492224 -121.701245 302 7128ft 273kts
14-Sep-20 09:51 37.534592 -121.781866 282 7008ft 272kts
14-Sep-20 09:52 37.545614 -121.876732 274 5878ft 268kts
14-Sep-20 09:53 37.554969 -121.962343 275 4850ft 227kts
14-Sep-20 09:54 37.578168 -122.029894 307 3809ft 211kts
14-Sep-20 09:55 37.614146 -122.083611 307 2732ft 182kts
14-Sep-20 09:56 37.645804 -122.130924 308 1744ft 164kts
14-Sep-20 09:56 37.669473 -122.166356 310 1027ft 157kts
14-Sep-20 09:58 37.699517 -122.211252 309 111ft 137kts
14-Sep-20 09:59 37.713568 -122.231126 341 20ft 25kts
14-Sep-20 09:59 37.714823 -122.230585 130 20ft 9kts
14-Sep-20 10:00 37.712086 -122.225128 51 20ft 15kts
14-Sep-20 10:02 37.714730 -122.219729 45 20ft 10kts
14-Sep-20 10:02 37.716545 -122.219841 43 20ft 8kts
14-Sep-20 10:03 37.716557 -122.218559 139 20ft 0kts
14-Sep-20 10:04 37.716557 -122.218559 139 20ft 0kts
14-Sep-20 10:05 37.716557 -122.218559 139 20ft 0kts
14-Sep-20 10:06 37.716557 -122.218559 139 20ft 0kts
14-Sep-20 10:07 37.716557 -122.218559 139 20ft 0kts

Navigation Log

Ident Type
Flight plan parsing failed, navigation log unavailable